createdAt,value
2019-05-06T00:00:26.180Z,13.58
2019-05-06T00:02:56.284Z,15.32
2019-05-06T00:05:25.666Z,12.95
2019-05-06T00:07:54.972Z,14.80
2019-05-06T00:10:29.586Z,18.87
2019-05-06T00:12:58.715Z,16.97
2019-05-06T00:15:27.937Z,13.10
2019-05-06T00:17:58.139Z,17.00
2019-05-06T00:20:27.429Z,14.40
2019-05-06T00:23:04.106Z,14.03
2019-05-06T00:25:44.178Z,15.60
2019-05-06T00:28:39.926Z,14.78
2019-05-06T00:31:15.142Z,23.20
2019-05-06T00:33:44.292Z,19.87
2019-05-06T00:36:14.171Z,16.37
2019-05-06T00:38:44.968Z,18.62
2019-05-06T00:41:19.371Z,16.67
2019-05-06T00:43:48.415Z,17.32
2019-05-06T00:46:17.298Z,25.60
2019-05-06T00:48:46.334Z,19.37
2019-05-06T00:51:15.358Z,18.23
2019-05-06T00:53:48.495Z,17.67
2019-05-06T00:56:17.515Z,17.42
2019-05-06T00:58:46.547Z,14.18
2019-05-06T01:01:25.967Z,20.02
2019-05-06T01:03:46.499Z,18.87
2019-05-06T01:06:16.515Z,18.75
2019-05-06T01:08:45.544Z,19.67
2019-05-06T01:11:14.554Z,18.05
2019-05-06T01:13:49.583Z,19.17
2019-05-06T01:16:20.080Z,17.52
2019-05-06T01:18:49.036Z,16.52
2019-05-06T01:21:18.054Z,16.82
2019-05-06T01:23:47.680Z,22.50
2019-05-06T01:26:17.683Z,13.30
2019-05-06T01:28:46.743Z,15.85
2019-05-06T01:31:15.888Z,18.07
2019-05-06T01:33:45.352Z,19.40
2019-05-06T01:36:14.511Z,21.00
2019-05-06T01:38:53.535Z,24.85
2019-05-06T01:41:47.484Z,18.40
2019-05-06T01:44:16.539Z,32.70
2019-05-06T01:46:45.575Z,16.12
2019-05-06T01:49:14.617Z,20.00
2019-05-06T01:51:46.699Z,21.77
2019-05-06T01:54:15.742Z,21.95
2019-05-06T01:56:44.755Z,17.90
2019-05-06T01:59:14.223Z,20.57
2019-05-06T02:01:57.385Z,21.73
2019-05-06T02:04:15.110Z,20.82
2019-05-06T02:06:44.175Z,20.82
2019-05-06T02:09:17.495Z,21.60
2019-05-06T02:11:48.082Z,19.05
2019-05-06T02:14:18.235Z,24.27
2019-05-06T02:16:49.378Z,19.75
2019-05-06T02:19:18.394Z,18.40
2019-05-06T02:21:58.848Z,22.25
2019-05-06T02:24:33.845Z,19.73
2019-05-06T02:27:04.514Z,23.10
2019-05-06T02:29:36.366Z,23.80
2019-05-06T02:32:26.209Z,21.35
2019-05-06T02:35:14.981Z,23.02
2019-05-06T02:37:46.412Z,23.90
2019-05-06T02:40:24.765Z,27.40
2019-05-06T02:42:54.907Z,25.02
2019-05-06T02:45:25.355Z,26.62
2019-05-06T02:48:15.119Z,22.20
2019-05-06T02:51:03.911Z,21.55
2019-05-06T02:53:33.613Z,22.67
2019-05-06T02:56:03.993Z,24.25
2019-05-06T02:58:33.404Z,26.42
2019-05-06T03:01:03.508Z,28.00
2019-05-06T03:03:33.726Z,24.15
2019-05-06T03:06:03.968Z,26.35
2019-05-06T03:08:33.371Z,23.45
2019-05-06T03:11:03.970Z,25.62
2019-05-06T03:13:34.361Z,25.82
2019-05-06T03:16:05.840Z,20.50
2019-05-06T03:18:35.107Z,21.05
2019-05-06T03:21:24.689Z,23.50
2019-05-06T03:23:59.842Z,21.23
2019-05-06T03:26:28.864Z,26.12
2019-05-06T03:28:58.938Z,27.02
2019-05-06T03:31:28.772Z,23.15
2019-05-06T03:34:22.240Z,32.63
2019-05-06T03:36:34.651Z,26.05
2019-05-06T03:39:02.855Z,25.05
2019-05-06T03:41:33.614Z,28.85
2019-05-06T03:44:03.253Z,22.87
2019-05-06T03:46:54.008Z,22.27
2019-05-06T03:49:24.111Z,26.40
2019-05-06T03:51:56.157Z,30.85
2019-05-06T03:54:24.196Z,30.50
2019-05-06T03:56:56.372Z,29.15
2019-05-06T03:59:27.208Z,27.05
2019-05-06T04:01:56.217Z,34.60
2019-05-06T04:04:26.142Z,33.70
2019-05-06T04:06:56.255Z,34.38
2019-05-06T04:09:25.275Z,27.17
2019-05-06T04:11:56.116Z,31.97
2019-05-06T04:14:26.272Z,25.02
2019-05-06T04:17:20.059Z,27.52
2019-05-06T04:19:53.617Z,29.32
2019-05-06T04:22:35.348Z,32.48
2019-05-06T04:25:23.304Z,32.03
2019-05-06T04:27:56.154Z,30.40
2019-05-06T04:30:25.611Z,30.20
2019-05-06T04:32:56.387Z,36.00
2019-05-06T04:35:25.914Z,31.30
2019-05-06T04:37:55.923Z,28.65
2019-05-06T04:40:25.006Z,34.30
2019-05-06T04:42:55.059Z,33.35
2019-05-06T04:45:24.623Z,41.05
2019-05-06T04:47:54.217Z,29.30
2019-05-06T04:50:24.126Z,32.75
2019-05-06T04:53:04.659Z,36.33
2019-05-06T04:55:34.755Z,32.10
2019-05-06T04:58:04.883Z,24.47
2019-05-06T05:00:35.669Z,32.15
2019-05-06T05:03:05.285Z,30.30
2019-05-06T05:05:34.595Z,30.17
2019-05-06T05:08:03.930Z,41.40
2019-05-06T05:10:43.197Z,30.90
2019-05-06T05:13:23.185Z,30.90
2019-05-06T05:16:12.815Z,32.35
2019-05-06T05:18:45.722Z,33.25
2019-05-06T05:21:15.279Z,30.62
2019-05-06T05:23:44.614Z,28.00
2019-05-06T05:26:13.621Z,25.88
2019-05-06T05:28:43.050Z,32.20
2019-05-06T05:31:12.361Z,29.25
2019-05-06T05:33:42.320Z,33.75
2019-05-06T05:36:12.428Z,35.38
2019-05-06T05:38:42.936Z,26.73
2019-05-06T05:41:12.204Z,31.45
2019-05-06T05:43:52.873Z,29.98
2019-05-06T05:46:21.956Z,27.25
2019-05-06T05:49:09.540Z,29.35
2019-05-06T05:51:39.777Z,31.40
2019-05-06T05:54:09.908Z,27.75
2019-05-06T05:56:39.234Z,26.68
2019-05-06T05:59:08.302Z,31.52
2019-05-06T06:01:37.528Z,23.22
2019-05-06T06:04:06.580Z,28.40
2019-05-06T06:06:35.798Z,26.73
2019-05-06T06:09:05.734Z,27.40
2019-05-06T06:11:48.071Z,33.08
2019-05-06T06:14:56.201Z,23.02
2019-05-06T06:17:52.058Z,26.27
2019-05-06T06:20:38.582Z,27.10
2019-05-06T06:23:17.890Z,28.98
2019-05-06T06:25:48.035Z,24.85
2019-05-06T06:28:17.993Z,24.65
2019-05-06T06:30:59.542Z,23.65
2019-05-06T06:33:28.593Z,25.23
2019-05-06T06:36:19.785Z,29.27
2019-05-06T06:39:13.928Z,27.25
2019-05-06T06:41:42.982Z,22.62
2019-05-06T06:44:15.627Z,27.25
2019-05-06T06:46:45.660Z,27.00
2019-05-06T06:49:14.679Z,23.77
2019-05-06T06:51:44.742Z,25.82
2019-05-06T06:54:13.773Z,23.67
2019-05-06T06:57:07.887Z,22.77
2019-05-06T06:59:42.560Z,24.12
2019-05-06T07:02:32.769Z,27.62
2019-05-06T07:05:22.440Z,31.57
2019-05-06T07:07:47.132Z,31.37
2019-05-06T07:10:32.411Z,22.82
2019-05-06T07:13:02.863Z,24.32
2019-05-06T07:15:33.631Z,29.63
2019-05-06T07:18:04.100Z,24.20
2019-05-06T07:20:37.959Z,27.77
2019-05-06T07:23:25.262Z,25.40
2019-05-06T07:25:54.984Z,30.30
2019-05-06T07:28:24.581Z,26.93
2019-05-06T07:30:54.083Z,26.25
2019-05-06T07:33:23.205Z,28.40
2019-05-06T07:35:52.885Z,24.02
2019-05-06T07:38:23.019Z,28.60
2019-05-06T07:40:57.445Z,28.67
2019-05-06T07:43:44.340Z,25.02
2019-05-06T07:46:23.506Z,25.08
2019-05-06T07:48:51.888Z,25.75
2019-05-06T07:51:23.882Z,24.85
2019-05-06T07:53:52.622Z,30.80
2019-05-06T07:56:22.460Z,23.30
2019-05-06T07:58:53.583Z,31.87
2019-05-06T08:01:25.948Z,30.27
2019-05-06T08:03:53.408Z,27.98
2019-05-06T08:06:22.791Z,27.48
2019-05-06T08:08:53.834Z,23.90
2019-05-06T08:11:26.013Z,27.50
2019-05-06T08:13:53.615Z,27.73
2019-05-06T08:16:23.445Z,27.58
2019-05-06T08:18:53.261Z,25.25
2019-05-06T08:21:23.961Z,26.55
2019-05-06T08:23:52.998Z,23.07
2019-05-06T08:26:22.574Z,21.48
2019-05-06T08:28:52.632Z,28.85
2019-05-06T08:31:22.801Z,27.00
2019-05-06T08:33:52.413Z,29.48
2019-05-06T08:36:32.922Z,22.32
2019-05-06T08:39:02.862Z,17.73
2019-05-06T08:41:33.229Z,27.15
2019-05-06T08:44:02.811Z,25.45
2019-05-06T08:46:32.917Z,21.73
2019-05-06T08:49:03.072Z,22.65
2019-05-06T08:51:42.614Z,23.05
2019-05-06T08:54:28.014Z,23.50
2019-05-06T08:56:57.149Z,21.80
2019-05-06T08:59:26.133Z,28.65
2019-05-06T09:01:56.350Z,24.27
2019-05-06T09:04:25.329Z,27.82
2019-05-06T09:06:54.343Z,22.07
2019-05-06T09:09:23.346Z,28.17
2019-05-06T09:11:53.517Z,23.18
2019-05-06T09:14:23.651Z,20.05
2019-05-06T09:16:53.989Z,34.98
2019-05-06T09:19:23.533Z,27.20
2019-05-06T09:21:53.336Z,26.30
2019-05-06T09:24:23.191Z,26.52
2019-05-06T09:27:04.006Z,19.62
2019-05-06T09:29:42.984Z,26.60
2019-05-06T09:32:16.811Z,20.77
2019-05-06T09:34:52.432Z,19.40
2019-05-06T09:37:24.084Z,19.37
2019-05-06T09:39:53.411Z,18.62
2019-05-06T09:42:23.140Z,21.97
2019-05-06T09:44:54.011Z,20.50
2019-05-06T09:47:42.408Z,21.77
2019-05-06T09:50:14.336Z,23.65
2019-05-06T09:52:43.346Z,20.77
2019-05-06T09:55:22.602Z,21.23
2019-05-06T09:58:03.419Z,19.90
2019-05-06T10:00:34.562Z,18.52
2019-05-06T10:03:03.956Z,24.75
2019-05-06T10:05:32.986Z,24.60
2019-05-06T10:08:03.440Z,20.88
2019-05-06T10:10:32.888Z,25.02
2019-05-06T10:13:04.254Z,20.27
2019-05-06T10:15:33.570Z,16.00
2019-05-06T10:18:08.978Z,22.73
2019-05-06T10:20:39.637Z,16.42
2019-05-06T10:23:09.202Z,21.47
2019-05-06T10:25:38.671Z,18.73
2019-05-06T10:28:13.347Z,18.03
2019-05-06T10:30:43.394Z,21.20
2019-05-06T10:33:16.802Z,18.10
2019-05-06T10:35:45.833Z,25.87
2019-05-06T10:38:43.866Z,18.85
2019-05-06T10:41:18.150Z,17.45
2019-05-06T10:44:36.939Z,20.23
2019-05-06T10:47:05.894Z,21.42
2019-05-06T10:49:34.825Z,19.07
2019-05-06T10:52:13.181Z,20.97
2019-05-06T10:54:42.219Z,19.15
2019-05-06T10:57:33.594Z,23.50
2019-05-06T11:00:02.634Z,18.40
2019-05-06T11:03:02.842Z,19.12
2019-05-06T11:05:32.519Z,17.40
2019-05-06T11:08:02.348Z,17.50
2019-05-06T11:10:40.428Z,18.98
2019-05-06T11:13:03.446Z,16.25
2019-05-06T11:15:33.084Z,16.02
2019-05-06T11:18:04.728Z,16.30
2019-05-06T11:20:33.576Z,16.27
2019-05-06T11:23:02.811Z,20.80
2019-05-06T11:25:32.394Z,20.50
2019-05-06T11:28:02.981Z,18.93
2019-05-06T11:30:49.734Z,11.85
2019-05-06T11:33:52.570Z,12.93
2019-05-06T11:36:26.356Z,10.40
2019-05-06T11:38:56.473Z,14.17
2019-05-06T11:41:25.466Z,17.50
2019-05-06T11:43:54.454Z,13.40
2019-05-06T11:46:23.544Z,15.37
2019-05-06T11:48:52.597Z,14.47
2019-05-06T11:51:23.217Z,13.60
2019-05-06T11:53:54.067Z,12.83
2019-05-06T11:56:23.142Z,15.37
2019-05-06T11:58:53.993Z,16.07
2019-05-06T12:01:43.446Z,21.57
2019-05-06T12:04:13.859Z,20.23
2019-05-06T12:06:43.072Z,18.93
2019-05-06T12:09:16.553Z,20.45
2019-05-06T12:11:43.344Z,25.68
2019-05-06T12:14:12.582Z,22.40
2019-05-06T12:16:41.678Z,20.77
2019-05-06T12:19:12.882Z,20.60
2019-05-06T12:21:43.118Z,23.38
2019-05-06T12:24:12.362Z,27.75
2019-05-06T12:26:42.939Z,19.12
2019-05-06T12:29:12.676Z,20.23
2019-05-06T12:31:42.345Z,22.55
2019-05-06T12:34:14.527Z,20.92
2019-05-06T12:36:42.882Z,19.42
2019-05-06T12:39:27.732Z,20.35
2019-05-06T12:42:15.824Z,21.87
2019-05-06T12:45:10.159Z,25.65
2019-05-06T12:47:59.856Z,19.17
2019-05-06T12:50:28.834Z,20.05
2019-05-06T12:52:58.076Z,17.87
2019-05-06T12:55:27.204Z,21.57
2019-05-06T12:57:56.151Z,24.70
2019-05-06T13:00:27.439Z,16.93
2019-05-06T13:02:56.372Z,17.87
2019-05-06T13:05:25.469Z,18.87
2019-05-06T13:07:55.271Z,20.47
2019-05-06T13:10:24.290Z,17.23
2019-05-06T13:12:58.407Z,19.50
2019-05-06T13:15:27.451Z,19.20
2019-05-06T13:17:56.476Z,23.98
2019-05-06T13:20:25.487Z,21.97
2019-05-06T13:23:00.241Z,18.47
2019-05-06T13:25:32.610Z,14.03
2019-05-06T13:28:01.006Z,18.40
2019-05-06T13:30:32.633Z,19.65
2019-05-06T13:33:08.019Z,17.27
2019-05-06T13:35:37.118Z,20.23
2019-05-06T13:38:07.981Z,23.90
2019-05-06T13:40:51.286Z,20.07
2019-05-06T13:43:43.930Z,20.85
2019-05-06T13:46:19.747Z,19.43
2019-05-06T13:48:57.447Z,21.77
2019-05-06T13:51:32.198Z,16.80
2019-05-06T13:54:02.560Z,20.70
2019-05-06T13:56:33.249Z,19.83
2019-05-06T13:59:05.032Z,17.37
2019-05-06T14:01:45.672Z,18.73
2019-05-06T14:04:19.654Z,16.73
2019-05-06T14:06:49.040Z,16.20
2019-05-06T14:09:31.389Z,20.10
2019-05-06T14:11:49.920Z,16.83
2019-05-06T14:14:19.266Z,17.33
2019-05-06T14:16:49.120Z,19.70
2019-05-06T14:19:19.808Z,13.23
2019-05-06T14:21:49.043Z,16.00
2019-05-06T14:24:19.008Z,16.07
2019-05-06T14:26:57.460Z,16.53
2019-05-06T14:29:32.956Z,15.93
2019-05-06T14:32:02.638Z,15.37
2019-05-06T14:34:32.681Z,17.70
2019-05-06T14:37:09.303Z,13.80
2019-05-06T14:39:52.718Z,16.90
2019-05-06T14:42:12.841Z,15.87
2019-05-06T14:44:43.045Z,18.23
2019-05-06T14:47:23.417Z,16.67
2019-05-06T14:49:53.125Z,18.30
2019-05-06T14:52:23.450Z,16.43
2019-05-06T14:54:57.883Z,18.93
2019-05-06T14:57:27.046Z,19.47
2019-05-06T14:59:56.804Z,24.00
2019-05-06T15:02:27.671Z,18.98
2019-05-06T15:04:58.824Z,18.00
2019-05-06T15:07:29.153Z,21.20
2019-05-06T15:10:16.330Z,18.80
2019-05-06T15:12:29.480Z,24.98
2019-05-06T15:14:58.679Z,19.15
2019-05-06T15:17:27.706Z,18.48
2019-05-06T15:19:56.804Z,16.15
2019-05-06T15:22:26.777Z,20.82
2019-05-06T15:24:55.859Z,21.60
2019-05-06T15:27:25.047Z,14.07
2019-05-06T15:29:58.208Z,15.85
2019-05-06T15:32:32.111Z,21.82
2019-05-06T15:35:24.261Z,15.13
2019-05-06T15:37:57.440Z,17.23
2019-05-06T15:40:32.575Z,16.25
2019-05-06T15:42:58.707Z,16.40
2019-05-06T15:45:28.024Z,14.30
2019-05-06T15:47:57.814Z,14.73
2019-05-06T15:50:28.064Z,22.27
2019-05-06T15:52:58.287Z,13.50
2019-05-06T15:55:32.134Z,13.80
2019-05-06T15:58:03.472Z,17.92
2019-05-06T16:00:33.234Z,16.17
2019-05-06T16:03:02.593Z,16.95
2019-05-06T16:05:34.478Z,44.47
2019-05-06T16:08:04.868Z,25.02
2019-05-06T16:10:50.969Z,61.90
2019-05-06T16:13:06.085Z,15.13
2019-05-06T16:15:35.258Z,12.82
2019-05-06T16:18:04.888Z,14.18
2019-05-06T16:20:36.340Z,13.30
2019-05-06T16:23:17.485Z,13.95
2019-05-06T16:25:47.892Z,12.40
2019-05-06T16:28:18.515Z,14.15
2019-05-06T16:30:47.672Z,14.23
2019-05-06T16:33:22.061Z,20.70
2019-05-06T16:35:57.986Z,21.35
2019-05-06T16:38:27.211Z,11.65
2019-05-06T16:41:09.461Z,14.65
2019-05-06T16:44:07.388Z,18.13
2019-05-06T16:46:39.860Z,15.03
2019-05-06T16:49:10.219Z,15.23
2019-05-06T16:51:46.327Z,20.97
2019-05-06T16:54:16.587Z,19.10
2019-05-06T16:56:56.993Z,12.82
2019-05-06T16:59:27.450Z,17.48
2019-05-06T17:02:02.853Z,20.92
2019-05-06T17:04:38.668Z,12.55
2019-05-06T17:07:07.767Z,17.27
2019-05-06T17:09:38.915Z,16.87
2019-05-06T17:12:10.240Z,11.88
2019-05-06T17:14:39.584Z,15.53
2019-05-06T17:17:09.228Z,13.98
2019-05-06T17:19:42.059Z,15.80
2019-05-06T17:22:13.034Z,19.45
2019-05-06T17:24:43.582Z,12.20
2019-05-06T17:27:13.769Z,12.75
2019-05-06T17:30:07.754Z,12.28
2019-05-06T17:32:41.899Z,15.72
2019-05-06T17:35:12.815Z,16.48
2019-05-06T17:38:04.127Z,14.78
2019-05-06T17:40:34.334Z,12.20
2019-05-06T17:43:03.438Z,13.48
2019-05-06T17:45:59.310Z,19.98
2019-05-06T17:48:42.417Z,13.95
2019-05-06T17:51:27.563Z,13.05
2019-05-06T17:53:57.708Z,14.93
2019-05-06T17:56:27.858Z,14.85
2019-05-06T17:58:57.043Z,16.77
2019-05-06T18:01:36.870Z,13.05
2019-05-06T18:04:07.042Z,18.42
2019-05-06T18:06:36.157Z,12.33
2019-05-06T18:09:07.633Z,16.90
2019-05-06T18:11:36.591Z,13.05
2019-05-06T18:14:05.602Z,14.73
2019-05-06T18:16:36.702Z,12.37
2019-05-06T18:19:07.726Z,12.68
2019-05-06T18:21:36.772Z,14.50
2019-05-06T18:24:05.786Z,15.05
2019-05-06T18:26:34.827Z,13.32
2019-05-06T18:29:04.167Z,12.98
2019-05-06T18:31:35.794Z,16.17
2019-05-06T18:34:06.481Z,16.35
2019-05-06T18:36:35.626Z,14.60
2019-05-06T18:39:07.385Z,13.08
2019-05-06T18:41:37.565Z,13.68
2019-05-06T18:44:06.806Z,21.68
2019-05-06T18:46:36.062Z,14.85
2019-05-06T18:49:05.195Z,13.03
2019-05-06T18:51:34.746Z,20.77
2019-05-06T18:54:03.979Z,14.38
2019-05-06T18:56:42.782Z,14.78
2019-05-06T18:59:12.236Z,14.55
2019-05-06T19:01:43.307Z,14.58
2019-05-06T19:04:23.566Z,20.02
2019-05-06T19:07:08.763Z,14.20
2019-05-06T19:09:47.276Z,18.05
2019-05-06T19:12:28.611Z,18.25
2019-05-06T19:14:47.222Z,14.85
2019-05-06T19:17:16.508Z,15.35
2019-05-06T19:19:52.039Z,17.27
2019-05-06T19:22:22.927Z,16.90
2019-05-06T19:24:54.530Z,21.05
2019-05-06T19:27:24.995Z,14.25
2019-05-06T19:29:54.783Z,15.05
2019-05-06T19:32:23.978Z,19.25
2019-05-06T19:34:54.144Z,19.10
2019-05-06T19:37:24.943Z,16.35
2019-05-06T19:39:54.034Z,18.45
2019-05-06T19:42:23.214Z,19.98
2019-05-06T19:44:52.903Z,15.20
2019-05-06T19:47:22.871Z,14.60
2019-05-06T19:49:53.195Z,13.45
2019-05-06T19:52:25.122Z,16.70
2019-05-06T19:54:54.305Z,15.95
2019-05-06T19:57:25.827Z,15.30
2019-05-06T19:59:54.795Z,18.73
2019-05-06T20:02:25.870Z,16.35
2019-05-06T20:04:59.156Z,13.95
2019-05-06T20:07:37.008Z,19.50
2019-05-06T20:10:32.703Z,16.65
2019-05-06T20:13:05.316Z,16.50
2019-05-06T20:15:42.644Z,17.15
2019-05-06T20:18:11.731Z,15.03
2019-05-06T20:20:42.356Z,16.80
2019-05-06T20:23:12.583Z,14.63
2019-05-06T20:25:42.581Z,19.82
2019-05-06T20:28:14.605Z,17.85
2019-05-06T20:30:44.898Z,17.87
2019-05-06T20:33:15.171Z,17.85
2019-05-06T20:35:44.472Z,16.60
2019-05-06T20:38:14.001Z,21.80
2019-05-06T20:40:43.378Z,18.57
2019-05-06T20:43:19.626Z,15.53
2019-05-06T20:45:43.419Z,15.08
2019-05-06T20:48:13.051Z,18.55
2019-05-06T20:50:43.238Z,19.40
2019-05-06T20:53:13.425Z,18.87
2019-05-06T20:55:43.313Z,18.15
2019-05-06T20:58:12.681Z,20.02
2019-05-06T21:00:42.948Z,16.67
2019-05-06T21:03:12.461Z,17.15
2019-05-06T21:05:43.763Z,19.30
2019-05-06T21:08:13.864Z,20.02
2019-05-06T21:10:43.303Z,18.65
2019-05-06T21:13:22.002Z,15.25
2019-05-06T21:15:45.111Z,21.00
2019-05-06T21:18:14.202Z,16.62
2019-05-06T21:20:43.680Z,16.02
2019-05-06T21:23:13.791Z,20.10
2019-05-06T21:25:43.276Z,19.50
2019-05-06T21:28:12.355Z,17.75
2019-05-06T21:30:42.899Z,18.92
2019-05-06T21:33:12.522Z,21.52
2019-05-06T21:35:42.687Z,20.95
2019-05-06T21:38:12.288Z,19.73
2019-05-06T21:40:43.328Z,19.45
2019-05-06T21:43:13.770Z,19.95
2019-05-06T21:45:43.790Z,25.62
2019-05-06T21:48:13.639Z,19.85
2019-05-06T21:50:42.895Z,23.57
2019-05-06T21:53:14.765Z,19.80
2019-05-06T21:55:44.995Z,17.98
2019-05-06T21:58:14.424Z,22.73
2019-05-06T22:00:55.015Z,19.30
2019-05-06T22:03:24.042Z,18.50
2019-05-06T22:05:54.629Z,16.50
2019-05-06T22:08:24.815Z,19.73
2019-05-06T22:10:53.958Z,18.10
2019-05-06T22:13:24.982Z,15.63
2019-05-06T22:15:54.035Z,17.62
2019-05-06T22:18:23.064Z,18.27
2019-05-06T22:21:10.812Z,23.20
2019-05-06T22:24:12.138Z,25.55
2019-05-06T22:26:43.066Z,18.32
2019-05-06T22:29:14.134Z,16.73
2019-05-06T22:31:43.133Z,15.72
2019-05-06T22:34:13.417Z,17.48
2019-05-06T22:36:43.631Z,18.02
2019-05-06T22:39:12.651Z,21.10
2019-05-06T22:41:43.914Z,22.52
2019-05-06T22:44:14.239Z,24.55
2019-05-06T22:46:43.230Z,23.55
2019-05-06T22:49:13.331Z,14.78
2019-05-06T22:51:44.530Z,22.02
2019-05-06T22:54:13.647Z,17.35
2019-05-06T22:56:42.638Z,18.95
2019-05-06T22:59:13.666Z,19.15
2019-05-06T23:01:54.618Z,18.12
2019-05-06T23:04:26.536Z,17.98
2019-05-06T23:06:55.594Z,15.68
2019-05-06T23:09:24.897Z,17.27
2019-05-06T23:11:54.113Z,22.87
2019-05-06T23:14:31.295Z,19.52
2019-05-06T23:16:53.922Z,19.40
2019-05-06T23:19:24.422Z,18.67
2019-05-06T23:21:53.710Z,17.92
2019-05-06T23:24:23.744Z,21.48
2019-05-06T23:26:54.770Z,19.62
2019-05-06T23:29:24.460Z,20.70
2019-05-06T23:31:53.483Z,19.70
2019-05-06T23:34:23.102Z,20.97
2019-05-06T23:37:25.811Z,21.20
2019-05-06T23:40:42.860Z,21.42
2019-05-06T23:43:47.075Z,21.73
2019-05-06T23:46:52.746Z,22.58
2019-05-06T23:49:57.614Z,27.17
2019-05-06T23:53:03.197Z,20.30
2019-05-06T23:56:08.860Z,18.67
2019-05-06T23:58:37.889Z,21.87
